createdAt,value
2018-04-19T06:04:38.515Z,19.53
2018-04-19T06:07:04.114Z,19.63
2018-04-19T06:09:29.810Z,15.97
2018-04-19T06:11:55.376Z,17.17
2018-04-19T06:14:21.113Z,16.13
2018-04-19T06:16:46.764Z,17.77
2018-04-19T06:19:12.472Z,15.17
2018-04-19T06:21:38.019Z,18.70
2018-04-19T06:24:03.790Z,18.57
2018-04-19T06:26:29.337Z,19.80
2018-04-19T06:28:55.076Z,18.97
2018-04-19T06:31:20.679Z,15.43
2018-04-19T06:33:46.579Z,19.00
2018-04-19T06:36:12.240Z,15.70
2018-04-19T06:38:37.759Z,17.40
2018-04-19T06:41:03.527Z,23.13
2018-04-19T06:43:29.059Z,17.13
2018-04-19T06:45:54.968Z,15.23
2018-04-19T06:48:20.527Z,16.80
2018-04-19T06:50:46.281Z,14.27
2018-04-19T06:53:11.842Z,14.10
2018-04-19T06:55:37.583Z,17.00
2018-04-19T06:58:03.121Z,17.30
2018-04-19T07:00:28.842Z,14.40
2018-04-19T07:02:54.435Z,18.02
2018-04-19T07:05:20.212Z,17.87
2018-04-19T07:07:45.769Z,16.43
2018-04-19T07:10:11.479Z,17.67
2018-04-19T07:12:37.064Z,16.70
2018-04-19T07:15:02.605Z,17.33
2018-04-19T07:17:28.314Z,18.35
2018-04-19T07:19:53.872Z,20.27
2018-04-19T07:22:19.634Z,18.77
2018-04-19T07:24:45.207Z,17.60
2018-04-19T07:27:10.963Z,20.20
2018-04-19T07:29:36.509Z,16.92
2018-04-19T07:32:02.341Z,17.63
2018-04-19T07:34:27.851Z,17.50
2018-04-19T07:36:53.572Z,17.43
2018-04-19T07:39:19.117Z,17.60
2018-04-19T07:41:44.922Z,17.23
2018-04-19T07:44:10.481Z,16.10
2018-04-19T07:46:36.083Z,17.13
2018-04-19T07:49:01.918Z,16.33
2018-04-19T07:51:27.489Z,16.10
2018-04-19T07:53:53.268Z,15.50
2018-04-19T07:56:18.870Z,17.47
2018-04-19T07:58:44.752Z,16.27
2018-04-19T08:01:10.388Z,19.53
2018-04-19T08:03:36.104Z,15.27
2018-04-19T08:06:01.648Z,16.37
2018-04-19T08:08:27.435Z,14.93
2018-04-19T08:10:52.991Z,17.30
2018-04-19T08:13:18.716Z,18.23
2018-04-19T08:15:44.250Z,13.23
2018-04-19T08:18:09.947Z,15.50
2018-04-19T08:20:35.489Z,16.17
2018-04-19T08:23:01.218Z,15.63
2018-04-19T08:25:26.834Z,16.90
2018-04-19T08:27:52.502Z,16.23
2018-04-19T08:30:18.087Z,14.07
2018-04-19T08:32:43.953Z,13.07
2018-04-19T08:35:09.550Z,13.77
2018-04-19T08:37:35.338Z,15.20
2018-04-19T08:40:00.870Z,15.57
2018-04-19T08:42:26.537Z,14.77
2018-04-19T08:44:52.097Z,14.40
2018-04-19T08:47:18.080Z,14.80
2018-04-19T08:49:43.638Z,12.80
2018-04-19T08:52:09.225Z,12.67
2018-04-19T08:54:35.016Z,10.20
2018-04-19T08:57:00.584Z,13.57
2018-04-19T08:59:26.347Z,13.53
2018-04-19T09:01:51.936Z,14.77
2018-04-19T09:04:17.621Z,11.57
2018-04-19T09:06:43.172Z,10.03
2018-04-19T09:09:08.950Z,14.30
2018-04-19T09:11:34.509Z,11.53
2018-04-19T09:14:00.305Z,11.60
2018-04-19T09:16:25.902Z,14.37
2018-04-19T09:18:51.666Z,10.37
2018-04-19T09:21:17.218Z,9.53
2018-04-19T09:23:42.961Z,9.83
2018-04-19T09:26:08.559Z,7.60
2018-04-19T09:28:34.259Z,9.13
2018-04-19T09:30:59.803Z,7.73
2018-04-19T09:33:25.522Z,29.10
2018-04-19T09:35:51.077Z,6.37
2018-04-19T09:38:17.062Z,6.17
2018-04-19T09:40:42.822Z,5.55
2018-04-19T09:43:08.365Z,7.37
2018-04-19T09:45:34.069Z,6.13
2018-04-19T09:47:59.611Z,5.33
2018-04-19T09:50:25.317Z,5.17
2018-04-19T09:52:50.861Z,8.43
2018-04-19T09:55:16.663Z,5.93
2018-04-19T09:58:07.247Z,5.47
2018-04-19T10:00:33.011Z,5.30
2018-04-19T10:02:58.587Z,6.37
2018-04-19T10:05:24.368Z,7.60
2018-04-19T10:07:49.934Z,7.50
2018-04-19T10:10:15.722Z,6.23
2018-04-19T10:15:21.664Z,5.70
2018-04-19T10:17:47.213Z,11.47
2018-04-19T10:20:12.970Z,5.10
2018-04-19T10:22:38.577Z,8.03
2018-04-19T10:25:04.330Z,7.13
2018-04-19T10:27:29.923Z,7.40
2018-04-19T10:29:55.545Z,4.20
2018-04-19T10:32:21.107Z,5.05
2018-04-19T10:34:46.934Z,4.93
2018-04-19T10:37:12.498Z,5.37
2018-04-19T10:39:38.225Z,7.07
2018-04-19T10:42:03.782Z,4.57
2018-04-19T10:44:29.527Z,6.32
2018-04-19T10:46:55.130Z,6.40
2018-04-19T10:49:20.891Z,4.50
2018-04-19T10:51:46.416Z,5.83
2018-04-19T10:54:12.201Z,5.27
2018-04-19T10:56:37.732Z,7.53
2018-04-19T10:59:03.493Z,5.30
2018-04-19T11:01:29.046Z,7.00
2018-04-19T11:03:54.739Z,5.10
2018-04-19T11:06:20.272Z,4.63
2018-04-19T11:08:46.005Z,6.33
2018-04-19T11:11:11.546Z,6.27
2018-04-19T11:13:37.384Z,6.40
2018-04-19T11:16:02.954Z,5.30
2018-04-19T11:18:28.721Z,6.90
2018-04-19T11:20:54.257Z,5.60
2018-04-19T11:23:19.956Z,7.10
2018-04-19T11:25:45.504Z,6.43
2018-04-19T11:28:11.215Z,7.20
2018-04-19T11:30:36.755Z,5.47
2018-04-19T11:33:02.361Z,5.27
2018-04-19T11:35:28.092Z,5.50
2018-04-19T11:37:53.701Z,6.50
2018-04-19T11:40:19.453Z,8.60
2018-04-19T11:42:45.008Z,6.97
2018-04-19T11:45:10.927Z,5.23
2018-04-19T11:47:36.505Z,6.10
2018-04-19T11:50:02.268Z,7.37
2018-04-19T11:52:27.816Z,4.83
2018-04-19T11:54:53.575Z,5.40
2018-04-19T11:57:19.128Z,6.03
2018-04-19T11:59:44.823Z,5.67
2018-04-19T12:02:10.427Z,5.03
2018-04-19T12:04:36.120Z,11.07
2018-04-19T12:07:01.668Z,6.27
2018-04-19T12:09:27.390Z,5.80
2018-04-19T12:11:52.937Z,5.95
2018-04-19T12:14:18.779Z,6.30
2018-04-19T12:16:44.385Z,4.93
2018-04-19T12:19:10.111Z,5.10
2018-04-19T12:21:35.638Z,7.03
2018-04-19T12:24:01.336Z,8.87
2018-04-19T12:26:26.883Z,4.73
2018-04-19T12:28:52.690Z,6.10
2018-04-19T12:31:18.246Z,9.97
2018-04-19T12:33:43.944Z,4.53
2018-04-19T12:36:09.488Z,5.10
2018-04-19T12:38:35.202Z,5.77
2018-04-19T12:41:01.304Z,6.60
2018-04-19T12:43:27.083Z,5.15
2018-04-19T12:45:52.616Z,5.70
2018-04-19T12:48:18.421Z,6.70
2018-04-19T12:50:44.023Z,6.47
2018-04-19T12:53:09.844Z,7.27
2018-04-19T12:55:35.387Z,5.33
2018-04-19T12:58:01.484Z,6.07
2018-04-19T13:00:27.088Z,5.27
2018-04-19T13:02:52.644Z,6.33
2018-04-19T13:05:18.582Z,6.17
2018-04-19T13:07:44.148Z,6.27
2018-04-19T13:10:09.828Z,7.27
2018-04-19T13:12:35.382Z,9.00
2018-04-19T13:15:01.168Z,5.80
2018-04-19T13:17:26.706Z,6.17
2018-04-19T13:19:52.582Z,9.50
2018-04-19T13:22:18.145Z,5.10
2018-04-19T13:24:43.920Z,4.20
2018-04-19T13:27:09.530Z,4.47
2018-04-19T13:29:35.300Z,6.10
2018-04-19T13:32:00.836Z,9.73
2018-04-19T13:34:26.539Z,6.17
2018-04-19T13:36:52.097Z,5.77
2018-04-19T13:39:17.855Z,5.07
2018-04-19T13:41:43.401Z,7.60
2018-04-19T13:44:09.196Z,7.27
2018-04-19T13:46:34.777Z,6.20
2018-04-19T13:49:00.362Z,5.93
2018-04-19T13:51:28.175Z,7.00
2018-04-19T13:53:53.711Z,5.27
2018-04-19T13:56:19.430Z,7.40
2018-04-19T13:58:44.980Z,6.43
2018-04-19T14:01:10.729Z,6.60
2018-04-19T14:03:36.274Z,11.63
2018-04-19T14:06:02.038Z,7.37
2018-04-19T14:08:27.602Z,9.30
2018-04-19T14:10:53.142Z,6.20
2018-04-19T14:13:18.953Z,8.20
2018-04-19T14:15:44.451Z,8.53
2018-04-19T14:18:10.140Z,7.33
2018-04-19T14:20:35.675Z,8.50
2018-04-19T14:23:01.412Z,8.10
2018-04-19T14:25:26.978Z,4.50
2018-04-19T14:27:52.777Z,5.83
2018-04-19T14:30:18.323Z,7.10
2018-04-19T14:32:45.148Z,7.57
2018-04-19T14:35:10.702Z,6.43
2018-04-19T14:37:36.388Z,6.03
2018-04-19T14:40:01.979Z,7.47
2018-04-19T14:42:27.752Z,6.67
2018-04-19T14:44:53.584Z,6.87
2018-04-19T14:47:19.316Z,8.83
2018-04-19T14:49:44.880Z,8.47
2018-04-19T14:52:10.571Z,8.18
2018-04-19T14:54:36.111Z,6.33
2018-04-19T14:57:01.803Z,5.73
2018-04-19T14:59:27.371Z,8.13
2018-04-19T15:01:53.180Z,6.50
2018-04-19T15:04:18.729Z,6.40
2018-04-19T15:06:44.323Z,5.83
2018-04-19T15:09:09.980Z,6.37
2018-04-19T15:11:35.519Z,6.13
2018-04-19T15:14:01.298Z,7.00
2018-04-19T15:16:26.849Z,8.63
2018-04-19T15:18:52.551Z,7.73
2018-04-19T15:21:18.112Z,6.57
2018-04-19T15:23:43.775Z,5.40
2018-04-19T15:26:09.324Z,7.90
2018-04-19T15:28:35.053Z,8.53
2018-04-19T15:31:00.652Z,7.80
2018-04-19T15:33:26.418Z,6.77
2018-04-19T15:35:51.958Z,7.37
2018-04-19T15:38:17.760Z,7.90
2018-04-19T15:40:43.295Z,5.67
2018-04-19T15:43:09.021Z,8.87
2018-04-19T15:45:34.620Z,7.57
2018-04-19T15:48:00.594Z,6.77
2018-04-19T15:50:26.134Z,6.57
2018-04-19T15:52:51.962Z,7.13
2018-04-19T15:55:17.520Z,6.23
2018-04-19T15:57:43.252Z,6.60
2018-04-19T16:00:08.802Z,11.73
2018-04-19T16:02:34.491Z,7.30
2018-04-19T16:05:00.069Z,5.93
2018-04-19T16:07:25.789Z,6.97
2018-04-19T16:09:51.346Z,6.93
2018-04-19T16:12:17.045Z,5.13
2018-04-19T16:14:42.585Z,5.43
2018-04-19T16:17:08.203Z,8.03
2018-04-19T16:19:34.017Z,6.53
2018-04-19T16:21:59.563Z,7.10
2018-04-19T16:24:25.440Z,6.90
2018-04-19T16:26:51.005Z,6.45
2018-04-19T16:29:16.830Z,9.73
2018-04-19T16:31:42.375Z,6.70
2018-04-19T16:34:08.103Z,9.17
2018-04-19T16:36:33.663Z,6.10
2018-04-19T16:38:59.430Z,7.03
2018-04-19T16:41:25.018Z,4.97
2018-04-19T16:43:50.857Z,7.60
2018-04-19T16:46:16.393Z,10.20
2018-04-19T16:48:42.128Z,8.87
2018-04-19T16:51:07.671Z,6.50
2018-04-19T16:53:33.397Z,7.10
2018-04-19T16:55:58.945Z,5.10
2018-04-19T16:58:24.704Z,5.20
2018-04-19T17:00:50.266Z,8.27
2018-04-19T17:03:16.051Z,8.07
2018-04-19T17:05:41.660Z,7.30
2018-04-19T17:08:07.341Z,5.30
2018-04-19T17:10:32.913Z,5.53
2018-04-19T17:12:58.442Z,9.93
2018-04-19T17:15:24.140Z,7.77
2018-04-19T17:17:49.699Z,6.73
2018-04-19T17:20:15.355Z,6.03
2018-04-19T17:22:40.899Z,4.80
2018-04-19T17:25:06.710Z,8.87
2018-04-19T17:27:32.257Z,7.77
2018-04-19T17:29:58.002Z,5.50
2018-04-19T17:32:23.598Z,7.10
2018-04-19T17:34:49.343Z,8.70
2018-04-19T17:37:14.947Z,8.63
2018-04-19T17:39:40.996Z,6.47
2018-04-19T17:42:06.545Z,5.93
2018-04-19T17:44:32.244Z,6.47
2018-04-19T17:46:57.769Z,9.13
2018-04-19T17:49:23.515Z,7.40
2018-04-19T17:51:49.166Z,5.33
2018-04-19T17:54:14.948Z,6.13
2018-04-19T17:56:40.571Z,8.10
2018-04-19T17:59:06.432Z,8.27
2018-04-19T18:01:31.986Z,6.20
2018-04-19T18:03:57.684Z,7.33
2018-04-19T18:06:23.242Z,10.70
2018-04-19T18:08:49.140Z,8.20
2018-04-19T18:11:14.690Z,7.73
2018-04-19T18:13:40.491Z,7.80
2018-04-19T18:16:06.053Z,10.83
2018-04-19T18:18:31.890Z,7.27
2018-04-19T18:20:57.440Z,5.30
2018-04-19T18:23:23.199Z,7.53
2018-04-19T18:25:48.810Z,7.90
2018-04-19T18:28:14.758Z,8.73
2018-04-19T18:30:40.303Z,6.20
2018-04-19T18:33:06.007Z,4.87
2018-04-19T18:35:31.585Z,7.63
2018-04-19T18:37:57.365Z,6.27
2018-04-19T18:40:22.903Z,11.10
2018-04-19T18:42:48.459Z,7.43
2018-04-19T18:45:14.451Z,7.75
2018-04-19T18:47:39.994Z,11.80
2018-04-19T18:50:05.806Z,7.33
2018-04-19T18:52:31.414Z,5.77
2018-04-19T18:54:57.115Z,4.33
2018-04-19T18:57:22.661Z,4.40
2018-04-19T18:59:48.421Z,6.00
2018-04-19T19:02:13.981Z,5.13
2018-04-19T19:04:39.768Z,5.80
2018-04-19T19:07:05.364Z,18.13
2018-04-19T19:09:31.118Z,9.60
2018-04-19T19:11:56.677Z,5.63
2018-04-19T19:14:22.403Z,5.30
2018-04-19T19:16:47.956Z,7.23
2018-04-19T19:19:51.303Z,8.23
2018-04-19T19:22:16.850Z,7.53
2018-04-19T19:24:42.579Z,5.97
2018-04-19T19:27:08.134Z,7.37
2018-04-19T19:29:33.923Z,7.87
2018-04-19T19:31:59.475Z,8.73
2018-04-19T19:34:25.026Z,6.87
2018-04-19T19:36:50.781Z,6.87
2018-04-19T19:39:16.355Z,7.63
2018-04-19T19:41:42.046Z,10.13
2018-04-19T19:44:07.601Z,10.70
2018-04-19T19:46:33.305Z,7.20
2018-04-19T19:48:58.841Z,8.93
2018-04-19T19:51:24.555Z,10.83
2018-04-19T19:53:50.099Z,6.27
2018-04-19T19:56:15.800Z,9.27
2018-04-19T19:58:41.349Z,10.40
2018-04-19T20:01:07.053Z,6.97
2018-04-19T20:03:32.597Z,9.00
2018-04-19T20:05:58.419Z,11.10
2018-04-19T20:08:23.959Z,7.05
2018-04-19T20:10:49.765Z,8.85
2018-04-19T20:13:15.371Z,10.65
2018-04-19T20:15:40.914Z,9.87
2018-04-19T20:18:06.697Z,9.10
2018-04-19T20:20:32.243Z,6.10
2018-04-19T20:22:58.029Z,10.53
2018-04-19T20:25:23.591Z,11.23
2018-04-19T20:27:49.511Z,7.80
2018-04-19T20:30:15.111Z,5.37
2018-04-19T20:35:12.715Z,7.13
2018-04-19T20:37:38.516Z,7.90
2018-04-19T20:40:04.080Z,10.20
2018-04-19T20:42:29.762Z,6.70
2018-04-19T20:44:55.317Z,7.87
2018-04-19T20:47:21.084Z,7.50
2018-04-19T20:49:46.647Z,11.10
2018-04-19T20:52:12.373Z,6.62
2018-04-19T20:54:37.938Z,8.00
2018-04-19T20:57:03.779Z,7.90
2018-04-19T20:59:29.321Z,7.27
2018-04-19T21:01:55.134Z,7.83
2018-04-19T21:04:20.690Z,7.07
2018-04-19T21:06:46.567Z,8.00
2018-04-19T21:09:12.134Z,8.77
2018-04-19T21:11:37.686Z,10.47
2018-04-19T21:14:03.416Z,5.53
2018-04-19T21:16:30.654Z,9.40
2018-04-19T21:18:56.428Z,8.20
2018-04-19T21:21:22.909Z,6.63
2018-04-19T21:23:48.732Z,8.20
2018-04-19T21:26:14.336Z,8.70
2018-04-19T21:28:40.025Z,8.20
2018-04-19T21:31:05.576Z,6.10
2018-04-19T21:33:31.288Z,7.30
2018-04-19T21:35:56.876Z,9.13
2018-04-19T21:38:22.657Z,8.63
2018-04-19T21:40:48.236Z,6.57
2018-04-19T21:43:14.004Z,5.37
2018-04-19T21:45:39.550Z,8.00
2018-04-19T21:48:05.253Z,9.70
2018-04-19T21:50:30.792Z,8.73
2018-04-19T21:52:56.388Z,9.00
2018-04-19T21:55:22.108Z,10.27
2018-04-19T21:57:47.922Z,6.67
